sensor_id;sensor_type;location;lat;lon;timestamp;temperature;humidity
75130;HTU21D;63703;44.716;37.846;2023-02-28T00:00:23;9.49;58.93
75130;HTU21D;63703;44.716;37.846;2023-02-28T00:02:49;9.46;59.04
75130;HTU21D;63703;44.716;37.846;2023-02-28T00:05:17;9.44;59.12
75130;HTU21D;63703;44.716;37.846;2023-02-28T00:07:43;9.38;59.19
75130;HTU21D;63703;44.716;37.846;2023-02-28T00:10:12;9.38;59.31
75130;HTU21D;63703;44.716;37.846;2023-02-28T00:12:39;9.37;59.34
75130;HTU21D;63703;44.716;37.846;2023-02-28T00:15:06;9.40;59.40
75130;HTU21D;63703;44.716;37.846;2023-02-28T00:17:33;9.45;59.55
75130;HTU21D;63703;44.716;37.846;2023-02-28T00:19:59;9.48;59.62
75130;HTU21D;63703;44.716;37.846;2023-02-28T00:22:43;9.49;59.72
75130;HTU21D;63703;44.716;37.846;2023-02-28T00:25:10;9.40;59.70
75130;HTU21D;63703;44.716;37.846;2023-02-28T00:27:37;9.37;59.77
75130;HTU21D;63703;44.716;37.846;2023-02-28T00:30:07;9.33;59.82
75130;HTU21D;63703;44.716;37.846;2023-02-28T00:32:33;9.31;59.83
75130;HTU21D;63703;44.716;37.846;2023-02-28T00:35:01;9.27;59.90
75130;HTU21D;63703;44.716;37.846;2023-02-28T00:37:27;9.21;59.96
75130;HTU21D;63703;44.716;37.846;2023-02-28T00:39:53;9.16;60.02
75130;HTU21D;63703;44.716;37.846;2023-02-28T00:42:19;9.11;60.09
75130;HTU21D;63703;44.716;37.846;2023-02-28T00:44:47;9.09;60.18
75130;HTU21D;63703;44.716;37.846;2023-02-28T00:47:13;9.08;60.26
75130;HTU21D;63703;44.716;37.846;2023-02-28T00:49:39;9.06;60.32
75130;HTU21D;63703;44.716;37.846;2023-02-28T00:52:04;9.05;60.41
75130;HTU21D;63703;44.716;37.846;2023-02-28T00:54:30;9.02;60.50
75130;HTU21D;63703;44.716;37.846;2023-02-28T00:56:56;9.00;60.55
75130;HTU21D;63703;44.716;37.846;2023-02-28T00:59:24;8.96;60.60
75130;HTU21D;63703;44.716;37.846;2023-02-28T01:01:50;8.92;60.72
75130;HTU21D;63703;44.716;37.846;2023-02-28T01:04:16;8.92;60.81
75130;HTU21D;63703;44.716;37.846;2023-02-28T01:06:42;8.91;60.88
75130;HTU21D;63703;44.716;37.846;2023-02-28T01:09:10;8.91;60.95
75130;HTU21D;63703;44.716;37.846;2023-02-28T01:11:36;8.91;61.03
75130;HTU21D;63703;44.716;37.846;2023-02-28T01:14:02;8.88;61.09
75130;HTU21D;63703;44.716;37.846;2023-02-28T01:16:29;8.86;61.16
75130;HTU21D;63703;44.716;37.846;2023-02-28T01:18:56;8.82;61.22
75130;HTU21D;63703;44.716;37.846;2023-02-28T01:21:23;8.82;61.30
75130;HTU21D;63703;44.716;37.846;2023-02-28T01:23:49;8.80;61.36
75130;HTU21D;63703;44.716;37.846;2023-02-28T01:26:20;8.80;61.55
75130;HTU21D;63703;44.716;37.846;2023-02-28T01:28:48;8.79;61.49
75130;HTU21D;63703;44.716;37.846;2023-02-28T01:31:14;8.78;61.54
75130;HTU21D;63703;44.716;37.846;2023-02-28T01:33:40;8.77;61.57
75130;HTU21D;63703;44.716;37.846;2023-02-28T01:36:09;8.75;61.63
75130;HTU21D;63703;44.716;37.846;2023-02-28T01:38:37;8.77;61.62
75130;HTU21D;63703;44.716;37.846;2023-02-28T01:41:04;8.77;61.65
75130;HTU21D;63703;44.716;37.846;2023-02-28T01:43:57;8.78;62.01
75130;HTU21D;63703;44.716;37.846;2023-02-28T01:46:24;8.74;61.73
75130;HTU21D;63703;44.716;37.846;2023-02-28T01:48:54;8.73;61.81
75130;HTU21D;63703;44.716;37.846;2023-02-28T01:51:41;8.72;61.99
75130;HTU21D;63703;44.716;37.846;2023-02-28T01:54:15;8.73;62.01
75130;HTU21D;63703;44.716;37.846;2023-02-28T01:56:46;8.75;62.03
75130;HTU21D;63703;44.716;37.846;2023-02-28T01:59:19;8.76;61.99
75130;HTU21D;63703;44.716;37.846;2023-02-28T02:01:48;8.77;62.00
75130;HTU21D;63703;44.716;37.846;2023-02-28T02:04:14;8.78;62.02
75130;HTU21D;63703;44.716;37.846;2023-02-28T02:06:44;8.79;62.07
75130;HTU21D;63703;44.716;37.846;2023-02-28T02:09:12;8.81;62.07
75130;HTU21D;63703;44.716;37.846;2023-02-28T02:11:40;8.80;62.08
75130;HTU21D;63703;44.716;37.846;2023-02-28T02:17:05;8.74;62.21
75130;HTU21D;63703;44.716;37.846;2023-02-28T02:31:13;8.61;62.21
75130;HTU21D;63703;44.716;37.846;2023-02-28T02:36:35;8.67;62.11
75130;HTU21D;63703;44.716;37.846;2023-02-28T02:39:19;8.73;62.12
75130;HTU21D;63703;44.716;37.846;2023-02-28T02:41:53;8.71;61.99
75130;HTU21D;63703;44.716;37.846;2023-02-28T02:44:43;8.66;62.21
75130;HTU21D;63703;44.716;37.846;2023-02-28T02:47:15;8.62;62.02
75130;HTU21D;63703;44.716;37.846;2023-02-28T02:49:46;8.58;62.04
75130;HTU21D;63703;44.716;37.846;2023-02-28T02:52:15;8.57;62.08
75130;HTU21D;63703;44.716;37.846;2023-02-28T02:54:45;8.55;62.12
75130;HTU21D;63703;44.716;37.846;2023-02-28T02:57:28;8.52;62.37
75130;HTU21D;63703;44.716;37.846;2023-02-28T02:59:56;8.48;62.18
75130;HTU21D;63703;44.716;37.846;2023-02-28T03:02:23;8.47;62.25
75130;HTU21D;63703;44.716;37.846;2023-02-28T03:05:01;8.48;62.57
75130;HTU21D;63703;44.716;37.846;2023-02-28T03:07:28;8.48;62.37
75130;HTU21D;63703;44.716;37.846;2023-02-28T03:09:56;8.49;62.41
75130;HTU21D;63703;44.716;37.846;2023-02-28T03:12:34;8.49;62.64
75130;HTU21D;63703;44.716;37.846;2023-02-28T03:15:24;8.46;62.74
75130;HTU21D;63703;44.716;37.846;2023-02-28T03:18:13;8.45;62.76
75130;HTU21D;63703;44.716;37.846;2023-02-28T03:23:23;8.39;62.73
75130;HTU21D;63703;44.716;37.846;2023-02-28T03:26:16;8.37;62.88
75130;HTU21D;63703;44.716;37.846;2023-02-28T03:31:43;8.42;62.60
75130;HTU21D;63703;44.716;37.846;2023-02-28T03:36:38;8.43;62.60
75130;HTU21D;63703;44.716;37.846;2023-02-28T03:39:20;8.44;62.67
75130;HTU21D;63703;44.716;37.846;2023-02-28T03:41:52;8.44;62.66
75130;HTU21D;63703;44.716;37.846;2023-02-28T03:45:10;8.43;62.75
75130;HTU21D;63703;44.716;37.846;2023-02-28T03:47:17;8.44;62.63
75130;HTU21D;63703;44.716;37.846;2023-02-28T03:49:46;8.45;62.63
75130;HTU21D;63703;44.716;37.846;2023-02-28T03:52:17;8.47;62.61
75130;HTU21D;63703;44.716;37.846;2023-02-28T03:54:50;8.45;62.64
75130;HTU21D;63703;44.716;37.846;2023-02-28T03:57:27;8.45;62.78
75130;HTU21D;63703;44.716;37.846;2023-02-28T04:00:02;8.39;62.67
75130;HTU21D;63703;44.716;37.846;2023-02-28T04:02:38;8.37;62.73
75130;HTU21D;63703;44.716;37.846;2023-02-28T04:05:06;8.38;62.71
75130;HTU21D;63703;44.716;37.846;2023-02-28T04:07:32;8.38;62.71
75130;HTU21D;63703;44.716;37.846;2023-02-28T04:09:59;8.36;62.70
75130;HTU21D;63703;44.716;37.846;2023-02-28T04:12:25;8.34;62.76
75130;HTU21D;63703;44.716;37.846;2023-02-28T04:14:51;8.34;62.73
75130;HTU21D;63703;44.716;37.846;2023-02-28T04:17:17;8.34;62.71
75130;HTU21D;63703;44.716;37.846;2023-02-28T04:19:43;8.37;62.70
75130;HTU21D;63703;44.716;37.846;2023-02-28T04:22:09;8.39;62.68
75130;HTU21D;63703;44.716;37.846;2023-02-28T04:24:35;8.48;62.62
75130;HTU21D;63703;44.716;37.846;2023-02-28T04:27:01;8.55;62.54
75130;HTU21D;63703;44.716;37.846;2023-02-28T04:29:32;8.59;62.50
75130;HTU21D;63703;44.716;37.846;2023-02-28T04:31:59;8.65;62.45
75130;HTU21D;63703;44.716;37.846;2023-02-28T04:34:26;8.63;62.45
75130;HTU21D;63703;44.716;37.846;2023-02-28T04:36:53;8.67;62.44
75130;HTU21D;63703;44.716;37.846;2023-02-28T04:39:21;8.73;62.37
75130;HTU21D;63703;44.716;37.846;2023-02-28T04:41:47;8.76;62.32
75130;HTU21D;63703;44.716;37.846;2023-02-28T04:44:14;8.79;62.28
75130;HTU21D;63703;44.716;37.846;2023-02-28T04:46:41;8.81;62.22
75130;HTU21D;63703;44.716;37.846;2023-02-28T04:49:07;8.81;62.25
75130;HTU21D;63703;44.716;37.846;2023-02-28T04:51:33;8.86;62.23
75130;HTU21D;63703;44.716;37.846;2023-02-28T04:53:59;8.91;62.17
75130;HTU21D;63703;44.716;37.846;2023-02-28T04:56:25;8.97;62.11
75130;HTU21D;63703;44.716;37.846;2023-02-28T04:58:51;9.09;61.99
75130;HTU21D;63703;44.716;37.846;2023-02-28T05:01:29;9.16;61.93
75130;HTU21D;63703;44.716;37.846;2023-02-28T05:03:57;9.22;61.82
75130;HTU21D;63703;44.716;37.846;2023-02-28T05:06:25;9.23;61.76
75130;HTU21D;63703;44.716;37.846;2023-02-28T05:08:52;9.30;61.73
75130;HTU21D;63703;44.716;37.846;2023-02-28T05:11:24;9.38;61.67
75130;HTU21D;63703;44.716;37.846;2023-02-28T05:13:51;9.46;61.54
75130;HTU21D;63703;44.716;37.846;2023-02-28T05:16:17;9.57;61.41
75130;HTU21D;63703;44.716;37.846;2023-02-28T05:18:44;9.66;61.28
75130;HTU21D;63703;44.716;37.846;2023-02-28T05:21:33;9.78;61.15
75130;HTU21D;63703;44.716;37.846;2023-02-28T05:24:02;9.85;61.01
75130;HTU21D;63703;44.716;37.846;2023-02-28T05:26:29;9.94;60.93
75130;HTU21D;63703;44.716;37.846;2023-02-28T05:28:55;10.03;60.80
75130;HTU21D;63703;44.716;37.846;2023-02-28T05:31:21;10.10;60.68
75130;HTU21D;63703;44.716;37.846;2023-02-28T05:33:47;10.18;60.60
75130;HTU21D;63703;44.716;37.846;2023-02-28T05:36:14;10.26;60.48
75130;HTU21D;63703;44.716;37.846;2023-02-28T05:38:40;10.35;60.39
75130;HTU21D;63703;44.716;37.846;2023-02-28T05:41:08;10.41;60.31
75130;HTU21D;63703;44.716;37.846;2023-02-28T05:43:34;10.49;60.25
75130;HTU21D;63703;44.716;37.846;2023-02-28T05:46:03;10.57;60.13
75130;HTU21D;63703;44.716;37.846;2023-02-28T05:48:29;10.65;60.02
75130;HTU21D;63703;44.716;37.846;2023-02-28T05:50:57;10.74;59.92
75130;HTU21D;63703;44.716;37.846;2023-02-28T05:53:23;10.80;59.76
75130;HTU21D;63703;44.716;37.846;2023-02-28T05:55:49;10.89;59.61
75130;HTU21D;63703;44.716;37.846;2023-02-28T05:58:15;10.96;59.52
75130;HTU21D;63703;44.716;37.846;2023-02-28T06:00:41;11.03;59.37
75130;HTU21D;63703;44.716;37.846;2023-02-28T06:03:07;11.11;59.22
75130;HTU21D;63703;44.716;37.846;2023-02-28T06:05:33;11.17;59.09
75130;HTU21D;63703;44.716;37.846;2023-02-28T06:07:58;11.26;58.92
75130;HTU21D;63703;44.716;37.846;2023-02-28T06:10:24;11.37;58.73
75130;HTU21D;63703;44.716;37.846;2023-02-28T06:12:50;11.47;58.54
75130;HTU21D;63703;44.716;37.846;2023-02-28T06:15:16;11.55;58.38
75130;HTU21D;63703;44.716;37.846;2023-02-28T06:17:43;11.66;58.25
75130;HTU21D;63703;44.716;37.846;2023-02-28T06:20:11;11.74;58.11
75130;HTU21D;63703;44.716;37.846;2023-02-28T06:22:39;11.84;58.00
75130;HTU21D;63703;44.716;37.846;2023-02-28T06:25:06;11.94;57.87
75130;HTU21D;63703;44.716;37.846;2023-02-28T06:27:33;12.02;57.67
75130;HTU21D;63703;44.716;37.846;2023-02-28T06:29:59;12.12;57.55
75130;HTU21D;63703;44.716;37.846;2023-02-28T06:32:25;12.22;57.40
75130;HTU21D;63703;44.716;37.846;2023-02-28T06:34:51;12.33;57.25
75130;HTU21D;63703;44.716;37.846;2023-02-28T06:37:18;12.41;57.09
75130;HTU21D;63703;44.716;37.846;2023-02-28T06:39:44;12.48;56.97
75130;HTU21D;63703;44.716;37.846;2023-02-28T06:42:10;12.57;56.87
75130;HTU21D;63703;44.716;37.846;2023-02-28T06:44:36;12.63;56.71
75130;HTU21D;63703;44.716;37.846;2023-02-28T06:47:04;12.72;56.49
75130;HTU21D;63703;44.716;37.846;2023-02-28T06:49:34;12.76;56.23
75130;HTU21D;63703;44.716;37.846;2023-02-28T06:52:02;12.81;56.16
75130;HTU21D;63703;44.716;37.846;2023-02-28T06:54:28;12.90;55.87
75130;HTU21D;63703;44.716;37.846;2023-02-28T06:56:53;12.96;55.53
75130;HTU21D;63703;44.716;37.846;2023-02-28T06:59:20;12.99;55.26
75130;HTU21D;63703;44.716;37.846;2023-02-28T07:01:46;13.03;55.08
75130;HTU21D;63703;44.716;37.846;2023-02-28T07:04:12;13.09;54.87
75130;HTU21D;63703;44.716;37.846;2023-02-28T07:06:38;13.19;54.60
75130;HTU21D;63703;44.716;37.846;2023-02-28T07:09:04;13.27;54.41
75130;HTU21D;63703;44.716;37.846;2023-02-28T07:11:31;13.33;54.20
75130;HTU21D;63703;44.716;37.846;2023-02-28T07:13:57;13.40;53.91
75130;HTU21D;63703;44.716;37.846;2023-02-28T07:16:24;13.50;53.65
75130;HTU21D;63703;44.716;37.846;2023-02-28T07:18:54;13.58;53.36
75130;HTU21D;63703;44.716;37.846;2023-02-28T07:21:21;13.61;53.30
75130;HTU21D;63703;44.716;37.846;2023-02-28T07:23:47;13.64;53.19
75130;HTU21D;63703;44.716;37.846;2023-02-28T07:26:16;13.75;52.84
75130;HTU21D;63703;44.716;37.846;2023-02-28T07:28:43;13.80;52.69
75130;HTU21D;63703;44.716;37.846;2023-02-28T07:31:10;13.84;52.50
75130;HTU21D;63703;44.716;37.846;2023-02-28T07:33:36;13.90;52.34
75130;HTU21D;63703;44.716;37.846;2023-02-28T07:36:11;13.94;51.68
75130;HTU21D;63703;44.716;37.846;2023-02-28T07:38:44;13.92;51.62
75130;HTU21D;63703;44.716;37.846;2023-02-28T07:41:12;13.89;51.75
75130;HTU21D;63703;44.716;37.846;2023-02-28T07:43:38;13.94;51.59
75130;HTU21D;63703;44.716;37.846;2023-02-28T07:46:09;14.01;51.24
75130;HTU21D;63703;44.716;37.846;2023-02-28T07:48:35;14.10;51.06
75130;HTU21D;63703;44.716;37.846;2023-02-28T07:51:01;14.19;50.72
75130;HTU21D;63703;44.716;37.846;2023-02-28T07:53:28;14.29;50.50
75130;HTU21D;63703;44.716;37.846;2023-02-28T07:55:57;14.35;50.08
75130;HTU21D;63703;44.716;37.846;2023-02-28T07:58:24;14.32;50.11
75130;HTU21D;63703;44.716;37.846;2023-02-28T08:00:51;14.34;50.07
75130;HTU21D;63703;44.716;37.846;2023-02-28T08:03:21;14.37;49.58
75130;HTU21D;63703;44.716;37.846;2023-02-28T08:05:47;14.30;49.67
75130;HTU21D;63703;44.716;37.846;2023-02-28T08:08:14;14.27;49.59
75130;HTU21D;63703;44.716;37.846;2023-02-28T08:10:40;14.26;49.47
75130;HTU21D;63703;44.716;37.846;2023-02-28T08:13:07;14.33;49.37
75130;HTU21D;63703;44.716;37.846;2023-02-28T08:15:33;14.33;49.17
75130;HTU21D;63703;44.716;37.846;2023-02-28T08:17:59;14.33;49.14
75130;HTU21D;63703;44.716;37.846;2023-02-28T08:20:25;14.35;48.97
75130;HTU21D;63703;44.716;37.846;2023-02-28T08:22:51;14.40;48.92
75130;HTU21D;63703;44.716;37.846;2023-02-28T08:25:18;14.43;48.76
75130;HTU21D;63703;44.716;37.846;2023-02-28T08:27:44;14.48;48.75
75130;HTU21D;63703;44.716;37.846;2023-02-28T08:30:14;14.51;48.40
75130;HTU21D;63703;44.716;37.846;2023-02-28T08:32:40;14.50;48.27
75130;HTU21D;63703;44.716;37.846;2023-02-28T08:35:07;14.42;48.12
75130;HTU21D;63703;44.716;37.846;2023-02-28T08:37:35;14.37;48.07
75130;HTU21D;63703;44.716;37.846;2023-02-28T08:40:01;14.38;48.28
75130;HTU21D;63703;44.716;37.846;2023-02-28T08:42:27;14.40;48.28
75130;HTU21D;63703;44.716;37.846;2023-02-28T08:44:53;14.38;48.31
75130;HTU21D;63703;44.716;37.846;2023-02-28T08:47:19;14.35;48.21
75130;HTU21D;63703;44.716;37.846;2023-02-28T08:49:45;14.39;48.35
75130;HTU21D;63703;44.716;37.846;2023-02-28T08:52:11;14.47;48.27
75130;HTU21D;63703;44.716;37.846;2023-02-28T08:54:36;14.50;48.28
75130;HTU21D;63703;44.716;37.846;2023-02-28T08:57:03;14.49;48.41
75130;HTU21D;63703;44.716;37.846;2023-02-28T08:59:29;14.49;48.45
75130;HTU21D;63703;44.716;37.846;2023-02-28T09:01:55;14.47;48.56
75130;HTU21D;63703;44.716;37.846;2023-02-28T09:04:21;14.51;48.69
75130;HTU21D;63703;44.716;37.846;2023-02-28T09:06:47;14.56;48.78
75130;HTU21D;63703;44.716;37.846;2023-02-28T09:09:14;14.70;48.79
75130;HTU21D;63703;44.716;37.846;2023-02-28T09:11:40;14.84;48.76
75130;HTU21D;63703;44.716;37.846;2023-02-28T09:14:06;15.00;48.66
75130;HTU21D;63703;44.716;37.846;2023-02-28T09:16:33;15.04;48.61
75130;HTU21D;63703;44.716;37.846;2023-02-28T09:19:00;15.10;48.65
75130;HTU21D;63703;44.716;37.846;2023-02-28T09:21:26;15.18;48.63
75130;HTU21D;63703;44.716;37.846;2023-02-28T09:23:52;15.24;48.71
75130;HTU21D;63703;44.716;37.846;2023-02-28T09:26:22;15.42;48.49
75130;HTU21D;63703;44.716;37.846;2023-02-28T09:28:48;15.44;47.88
75130;HTU21D;63703;44.716;37.846;2023-02-28T09:31:16;15.34;48.47
75130;HTU21D;63703;44.716;37.846;2023-02-28T09:33:47;15.39;48.41
75130;HTU21D;63703;44.716;37.846;2023-02-28T09:36:13;15.42;48.28
75130;HTU21D;63703;44.716;37.846;2023-02-28T09:38:39;15.51;48.15
75130;HTU21D;63703;44.716;37.846;2023-02-28T09:41:18;15.53;47.87
75130;HTU21D;63703;44.716;37.846;2023-02-28T09:43:51;15.52;48.12
75130;HTU21D;63703;44.716;37.846;2023-02-28T09:46:27;15.54;47.96
75130;HTU21D;63703;44.716;37.846;2023-02-28T09:48:55;15.69;48.12
75130;HTU21D;63703;44.716;37.846;2023-02-28T09:54:19;15.89;47.70
75130;HTU21D;63703;44.716;37.846;2023-02-28T09:56:53;16.06;47.13
75130;HTU21D;63703;44.716;37.846;2023-02-28T10:02:32;16.60;46.08
75130;HTU21D;63703;44.716;37.846;2023-02-28T10:05:19;16.82;46.47
75130;HTU21D;63703;44.716;37.846;2023-02-28T10:11:12;17.31;45.81
75130;HTU21D;63703;44.716;37.846;2023-02-28T10:14:10;17.48;45.00
75130;HTU21D;63703;44.716;37.846;2023-02-28T10:16:52;18.06;45.14
75130;HTU21D;63703;44.716;37.846;2023-02-28T10:19:29;18.44;45.09
75130;HTU21D;63703;44.716;37.846;2023-02-28T10:22:15;18.64;44.67
75130;HTU21D;63703;44.716;37.846;2023-02-28T10:24:46;18.94;45.13
75130;HTU21D;63703;44.716;37.846;2023-02-28T10:27:17;19.46;43.73
75130;HTU21D;63703;44.716;37.846;2023-02-28T10:29:49;19.46;43.06
75130;HTU21D;63703;44.716;37.846;2023-02-28T10:32:23;19.40;42.87
75130;HTU21D;63703;44.716;37.846;2023-02-28T10:34:57;19.37;42.59
75130;HTU21D;63703;44.716;37.846;2023-02-28T10:37:23;19.35;42.38
75130;HTU21D;63703;44.716;37.846;2023-02-28T10:39:49;19.03;42.16
75130;HTU21D;63703;44.716;37.846;2023-02-28T10:48:27;18.66;42.77
75130;HTU21D;63703;44.716;37.846;2023-02-28T10:50:39;19.06;42.50
75130;HTU21D;63703;44.716;37.846;2023-02-28T10:55:40;19.98;41.55
75130;HTU21D;63703;44.716;37.846;2023-02-28T10:58:20;20.22;42.07
75130;HTU21D;63703;44.716;37.846;2023-02-28T11:00:46;20.69;41.94
75130;HTU21D;63703;44.716;37.846;2023-02-28T11:03:28;21.03;42.16
75130;HTU21D;63703;44.716;37.846;2023-02-28T11:05:54;21.13;41.27
75130;HTU21D;63703;44.716;37.846;2023-02-28T11:08:20;21.00;40.75
75130;HTU21D;63703;44.716;37.846;2023-02-28T11:10:58;20.99;39.83
75130;HTU21D;63703;44.716;37.846;2023-02-28T11:13:34;20.86;39.56
75130;HTU21D;63703;44.716;37.846;2023-02-28T11:16:03;20.57;39.38
75130;HTU21D;63703;44.716;37.846;2023-02-28T11:18:36;20.65;39.85
75130;HTU21D;63703;44.716;37.846;2023-02-28T11:21:03;20.87;40.59
75130;HTU21D;63703;44.716;37.846;2023-02-28T11:23:30;21.31;40.35
75130;HTU21D;63703;44.716;37.846;2023-02-28T11:25:59;21.49;38.19
75130;HTU21D;63703;44.716;37.846;2023-02-28T11:28:31;21.62;39.02
75130;HTU21D;63703;44.716;37.846;2023-02-28T11:31:17;21.98;37.62
75130;HTU21D;63703;44.716;37.846;2023-02-28T11:33:55;22.44;37.11
75130;HTU21D;63703;44.716;37.846;2023-02-28T11:36:23;22.77;36.59
75130;HTU21D;63703;44.716;37.846;2023-02-28T11:38:50;22.94;37.14
75130;HTU21D;63703;44.716;37.846;2023-02-28T11:46:44;23.31;36.81
75130;HTU21D;63703;44.716;37.846;2023-02-28T11:54:59;20.11;39.39
75130;HTU21D;63703;44.716;37.846;2023-02-28T12:06:28;17.36;43.34
75130;HTU21D;63703;44.716;37.846;2023-02-28T12:09:20;16.91;44.22
75130;HTU21D;63703;44.716;37.846;2023-02-28T12:20:38;16.04;46.15
75130;HTU21D;63703;44.716;37.846;2023-02-28T12:23:25;15.97;46.64
75130;HTU21D;63703;44.716;37.846;2023-02-28T12:32:12;15.55;47.73
75130;HTU21D;63703;44.716;37.846;2023-02-28T12:34:49;15.80;47.58
75130;HTU21D;63703;44.716;37.846;2023-02-28T12:37:34;16.42;46.99
75130;HTU21D;63703;44.716;37.846;2023-02-28T12:40:11;17.70;44.97
75130;HTU21D;63703;44.716;37.846;2023-02-28T12:42:39;18.92;43.46
75130;HTU21D;63703;44.716;37.846;2023-02-28T12:45:19;20.42;41.03
75130;HTU21D;63703;44.716;37.846;2023-02-28T12:47:50;21.49;39.52
75130;HTU21D;63703;44.716;37.846;2023-02-28T12:50:18;21.63;39.16
75130;HTU21D;63703;44.716;37.846;2023-02-28T12:53:01;21.59;38.93
75130;HTU21D;63703;44.716;37.846;2023-02-28T12:56:09;20.73;39.69
75130;HTU21D;63703;44.716;37.846;2023-02-28T12:58:47;19.24;41.80
75130;HTU21D;63703;44.716;37.846;2023-02-28T13:09:40;16.56;44.93
75130;HTU21D;63703;44.716;37.846;2023-02-28T13:12:14;16.25;45.32
75130;HTU21D;63703;44.716;37.846;2023-02-28T13:14:40;15.99;45.67
75130;HTU21D;63703;44.716;37.846;2023-02-28T13:17:11;15.85;45.93
75130;HTU21D;63703;44.716;37.846;2023-02-28T13:24:55;15.54;46.70
75130;HTU21D;63703;44.716;37.846;2023-02-28T13:27:38;15.52;46.96
75130;HTU21D;63703;44.716;37.846;2023-02-28T13:33:31;15.33;47.19
75130;HTU21D;63703;44.716;37.846;2023-02-28T13:39:02;15.13;48.02
75130;HTU21D;63703;44.716;37.846;2023-02-28T14:03:05;13.62;53.38
75130;HTU21D;63703;44.716;37.846;2023-02-28T14:05:34;13.48;53.35
75130;HTU21D;63703;44.716;37.846;2023-02-28T14:08:06;13.39;54.33
75130;HTU21D;63703;44.716;37.846;2023-02-28T14:10:46;13.12;54.67
75130;HTU21D;63703;44.716;37.846;2023-02-28T14:16:11;12.65;55.06
75130;HTU21D;63703;44.716;37.846;2023-02-28T14:18:42;12.44;55.72
75130;HTU21D;63703;44.716;37.846;2023-02-28T14:21:25;12.17;56.36
75130;HTU21D;63703;44.716;37.846;2023-02-28T14:24:24;11.97;57.06
75130;HTU21D;63703;44.716;37.846;2023-02-28T14:32:41;11.36;58.05
75130;HTU21D;63703;44.716;37.846;2023-02-28T14:38:05;11.09;58.28
75130;HTU21D;63703;44.716;37.846;2023-02-28T14:40:34;10.97;58.61
75130;HTU21D;63703;44.716;37.846;2023-02-28T14:43:03;10.87;58.96
75130;HTU21D;63703;44.716;37.846;2023-02-28T14:45:32;10.75;60.21
75130;HTU21D;63703;44.716;37.846;2023-02-28T14:48:01;10.60;59.61
75130;HTU21D;63703;44.716;37.846;2023-02-28T14:50:34;10.53;60.47
75130;HTU21D;63703;44.716;37.846;2023-02-28T14:53:01;10.44;59.82
75130;HTU21D;63703;44.716;37.846;2023-02-28T14:55:34;10.36;60.39
75130;HTU21D;63703;44.716;37.846;2023-02-28T14:58:03;10.29;60.18
75130;HTU21D;63703;44.716;37.846;2023-02-28T15:00:42;10.24;60.36
75130;HTU21D;63703;44.716;37.846;2023-02-28T15:03:22;10.23;60.76
75130;HTU21D;63703;44.716;37.846;2023-02-28T15:05:58;10.19;60.96
75130;HTU21D;63703;44.716;37.846;2023-02-28T15:08:25;10.08;60.55
75130;HTU21D;63703;44.716;37.846;2023-02-28T15:16:17;10.03;61.39
75130;HTU21D;63703;44.716;37.846;2023-02-28T15:18:48;9.93;61.15
75130;HTU21D;63703;44.716;37.846;2023-02-28T15:21:35;9.90;62.31
75130;HTU21D;63703;44.716;37.846;2023-02-28T15:26:37;9.64;62.08
75130;HTU21D;63703;44.716;37.846;2023-02-28T15:29:13;9.54;62.56
75130;HTU21D;63703;44.716;37.846;2023-02-28T15:31:45;9.51;62.36
75130;HTU21D;63703;44.716;37.846;2023-02-28T15:34:43;9.49;62.87
75130;HTU21D;63703;44.716;37.846;2023-02-28T15:37:33;9.40;63.35
75130;HTU21D;63703;44.716;37.846;2023-02-28T15:40:17;9.21;62.93
75130;HTU21D;63703;44.716;37.846;2023-02-28T15:45:40;8.98;63.00
75130;HTU21D;63703;44.716;37.846;2023-02-28T15:48:36;8.92;64.19
75130;HTU21D;63703;44.716;37.846;2023-02-28T15:51:16;8.88;64.24
75130;HTU21D;63703;44.716;37.846;2023-02-28T15:56:31;8.74;64.12
75130;HTU21D;63703;44.716;37.846;2023-02-28T15:59:03;8.68;63.68
75130;HTU21D;63703;44.716;37.846;2023-02-28T16:01:35;8.65;63.66
75130;HTU21D;63703;44.716;37.846;2023-02-28T16:04:11;8.62;63.60
75130;HTU21D;63703;44.716;37.846;2023-02-28T16:09:13;8.44;63.95
75130;HTU21D;63703;44.716;37.846;2023-02-28T16:11:47;8.33;64.23
75130;HTU21D;63703;44.716;37.846;2023-02-28T16:14:20;8.23;64.28
75130;HTU21D;63703;44.716;37.846;2023-02-28T16:17:03;8.13;64.53
75130;HTU21D;63703;44.716;37.846;2023-02-28T16:19:30;8.00;64.35
75130;HTU21D;63703;44.716;37.846;2023-02-28T16:21:57;7.88;64.46
75130;HTU21D;63703;44.716;37.846;2023-02-28T16:24:23;7.77;64.62
75130;HTU21D;63703;44.716;37.846;2023-02-28T16:26:50;7.69;64.78
75130;HTU21D;63703;44.716;37.846;2023-02-28T16:29:32;7.62;65.19
75130;HTU21D;63703;44.716;37.846;2023-02-28T16:31:59;7.53;64.93
75130;HTU21D;63703;44.716;37.846;2023-02-28T16:34:26;7.47;64.99
75130;HTU21D;63703;44.716;37.846;2023-02-28T16:36:52;7.43;65.24
75130;HTU21D;63703;44.716;37.846;2023-02-28T16:39:18;7.37;65.37
75130;HTU21D;63703;44.716;37.846;2023-02-28T16:41:49;7.30;65.47
75130;HTU21D;63703;44.716;37.846;2023-02-28T16:46:55;7.20;65.79
75130;HTU21D;63703;44.716;37.846;2023-02-28T16:49:21;7.17;65.78
75130;HTU21D;63703;44.716;37.846;2023-02-28T16:51:48;7.15;66.02
75130;HTU21D;63703;44.716;37.846;2023-02-28T16:54:14;7.11;65.96
75130;HTU21D;63703;44.716;37.846;2023-02-28T16:56:44;7.07;66.13
75130;HTU21D;63703;44.716;37.846;2023-02-28T16:59:10;7.00;66.14
75130;HTU21D;63703;44.716;37.846;2023-02-28T17:01:37;6.98;66.25
75130;HTU21D;63703;44.716;37.846;2023-02-28T17:04:03;6.93;66.43
75130;HTU21D;63703;44.716;37.846;2023-02-28T17:06:30;6.87;66.55
75130;HTU21D;63703;44.716;37.846;2023-02-28T17:08:57;6.84;66.58
75130;HTU21D;63703;44.716;37.846;2023-02-28T17:11:24;6.81;66.64
75130;HTU21D;63703;44.716;37.846;2023-02-28T17:13:51;6.81;66.77
75130;HTU21D;63703;44.716;37.846;2023-02-28T17:16:32;6.80;67.27
75130;HTU21D;63703;44.716;37.846;2023-02-28T17:19:03;6.75;67.14
75130;HTU21D;63703;44.716;37.846;2023-02-28T17:21:31;6.69;67.27
75130;HTU21D;63703;44.716;37.846;2023-02-28T17:23:57;6.66;67.39
75130;HTU21D;63703;44.716;37.846;2023-02-28T17:26:24;6.61;67.59
75130;HTU21D;63703;44.716;37.846;2023-02-28T17:28:51;6.55;67.66
75130;HTU21D;63703;44.716;37.846;2023-02-28T17:31:18;6.50;68.04
75130;HTU21D;63703;44.716;37.846;2023-02-28T17:33:44;6.40;67.89
75130;HTU21D;63703;44.716;37.846;2023-02-28T17:36:13;6.35;68.07
75130;HTU21D;63703;44.716;37.846;2023-02-28T17:38:40;6.31;68.07
75130;HTU21D;63703;44.716;37.846;2023-02-28T17:41:07;6.33;68.05
75130;HTU21D;63703;44.716;37.846;2023-02-28T17:43:35;6.34;67.98
75130;HTU21D;63703;44.716;37.846;2023-02-28T17:46:01;6.35;67.94
75130;HTU21D;63703;44.716;37.846;2023-02-28T17:48:27;6.39;67.92
75130;HTU21D;63703;44.716;37.846;2023-02-28T17:50:53;6.42;67.87
75130;HTU21D;63703;44.716;37.846;2023-02-28T17:53:19;6.40;68.12
75130;HTU21D;63703;44.716;37.846;2023-02-28T17:55:49;6.41;68.13